Time;durP1;ratioP1;P1;durP2;ratioP2;P2;SDS_P1;SDS_P2;PMS_P1;PMS_P2;Temp;Humidity;BMP_temperature;BMP_pressure;BME280_temperature;BME280_humidity;BME280_pressure;Samples;Min_cycle;Max_cycle;Signal;HPM_P1;HPM_P2
2023/03/27 00:00:58;;;;;;;;;;;4.80;99.90;;;;;;4997019;28;19914;-76
2023/03/27 00:03:24;;;;;;;;;;;4.90;99.90;;;;;;4996817;28;19914;-76
2023/03/27 00:06:04;;;;;;;;;;;4.90;99.90;;;;;;4979410;28;20297;-76
2023/03/27 00:08:30;;;;;;;;;;;4.90;99.90;;;;;;4997142;28;19917;-76
2023/03/27 00:10:56;;;;;;;;;;;4.90;99.90;;;;;;4997112;28;20294;-76
2023/03/27 00:13:21;;;;;;;;;;;4.90;99.90;;;;;;4996682;28;19914;-76
2023/03/27 00:15:49;;;;;;;;;;;4.90;99.90;;;;;;4996292;28;19914;-76
2023/03/27 00:18:15;;;;;;;;;;;4.90;99.90;;;;;;4996759;28;20413;-76
2023/03/27 00:20:41;;;;;;;;;;;4.80;99.90;;;;;;4996707;28;20378;-76
2023/03/27 00:23:06;;;;;;;;;;;4.80;99.90;;;;;;4996460;28;20301;-76
2023/03/27 00:25:33;;;;;;;;;;;4.70;99.90;;;;;;4996517;28;19914;-76
2023/03/27 00:28:00;;;;;;;;;;;4.70;99.90;;;;;;4996554;28;19910;-76
2023/03/27 00:30:27;;;;;;;;;;;4.60;99.90;;;;;;4996365;28;19926;-76
2023/03/27 00:32:54;;;;;;;;;;;4.60;99.90;;;;;;4996367;28;19914;-76
2023/03/27 00:35:20;;;;;;;;;;;4.60;99.90;;;;;;4996362;28;19917;-76
2023/03/27 00:37:46;;;;;;;;;;;4.60;99.90;;;;;;4996413;28;19921;-76
2023/03/27 00:40:18;;;;;;;;;;;4.50;99.90;;;;;;4979549;28;19914;-76
2023/03/27 00:42:45;;;;;;;;;;;4.50;99.90;;;;;;4996154;28;19936;-76
2023/03/27 00:45:14;;;;;;;;;;;4.50;99.90;;;;;;4978788;28;19914;-76
2023/03/27 00:47:40;;;;;;;;;;;4.50;99.90;;;;;;4996145;28;19921;-76
2023/03/27 00:50:09;;;;;;;;;;;4.50;99.90;;;;;;4996137;28;19914;-77
2023/03/27 00:52:35;;;;;;;;;;;4.50;99.90;;;;;;4996122;28;19988;-76
2023/03/27 00:55:04;;;;;;;;;;;4.50;99.90;;;;;;4996395;28;20281;-76
2023/03/27 00:57:30;;;;;;;;;;;4.40;99.90;;;;;;4996045;28;19917;-76
2023/03/27 00:59:56;;;;;;;;;;;4.30;99.90;;;;;;4995952;28;19914;-76
2023/03/27 01:02:22;;;;;;;;;;;4.40;99.90;;;;;;4995673;28;19918;-76
2023/03/27 01:04:48;;;;;;;;;;;4.40;99.90;;;;;;4978402;28;20374;-76
2023/03/27 01:07:14;;;;;;;;;;;4.40;99.90;;;;;;4995965;28;19914;-76
2023/03/27 01:09:40;;;;;;;;;;;4.40;99.90;;;;;;4996030;28;19920;-76
2023/03/27 01:12:09;;;;;;;;;;;4.50;99.90;;;;;;4995584;28;19909;-76
2023/03/27 01:14:38;;;;;;;;;;;4.50;99.90;;;;;;4995621;28;19916;-76
2023/03/27 01:17:12;;;;;;;;;;;4.50;99.90;;;;;;4995590;28;19910;-76
2023/03/27 01:19:38;;;;;;;;;;;4.60;99.90;;;;;;4978065;28;19910;-76
2023/03/27 01:22:03;;;;;;;;;;;4.60;99.90;;;;;;4977878;28;19920;-76
2023/03/27 01:24:48;;;;;;;;;;;4.60;99.90;;;;;;4978072;28;19943;-76
2023/03/27 01:27:40;;;;;;;;;;;4.60;99.90;;;;;;4995009;28;20301;-76
2023/03/27 01:30:05;;;;;;;;;;;4.60;99.90;;;;;;4972795;28;20362;-76
2023/03/27 01:32:34;;;;;;;;;;;4.60;99.90;;;;;;4977803;28;19917;-76
2023/03/27 01:35:18;;;;;;;;;;;4.50;99.90;;;;;;4995160;28;19933;-76
2023/03/27 01:37:56;;;;;;;;;;;4.50;99.90;;;;;;4995247;28;19917;-76
2023/03/27 01:40:27;;;;;;;;;;;4.40;99.90;;;;;;4995183;28;20024;-76
2023/03/27 01:43:02;;;;;;;;;;;4.40;99.90;;;;;;4995128;28;19960;-76
2023/03/27 01:45:27;;;;;;;;;;;4.40;99.90;;;;;;4995723;28;19992;-76
2023/03/27 01:47:56;;;;;;;;;;;4.50;99.90;;;;;;4995110;28;20445;-77
2023/03/27 01:50:24;;;;;;;;;;;4.50;99.90;;;;;;4977607;28;19992;-77
2023/03/27 01:52:57;;;;;;;;;;;4.50;99.90;;;;;;4995012;28;20290;-76
2023/03/27 01:55:26;;;;;;;;;;;4.50;99.90;;;;;;4995071;28;20000;-76
2023/03/27 01:58:12;;;;;;;;;;;4.50;99.90;;;;;;4994980;28;20007;-76
2023/03/27 02:00:41;;;;;;;;;;;4.50;99.90;;;;;;4977180;28;20370;-76
2023/03/27 02:03:15;;;;;;;;;;;4.50;99.90;;;;;;4994767;28;19953;-76
2023/03/27 02:05:46;;;;;;;;;;;4.50;99.90;;;;;;4995088;28;20282;-76
2023/03/27 02:08:17;;;;;;;;;;;4.40;99.90;;;;;;4994741;28;19949;-76
2023/03/27 02:10:45;;;;;;;;;;;4.40;99.90;;;;;;4994676;28;20311;-76
2023/03/27 02:13:22;;;;;;;;;;;4.30;99.90;;;;;;4994664;28;19919;-76
2023/03/27 02:15:49;;;;;;;;;;;4.30;99.90;;;;;;4994676;28;19918;-76
2023/03/27 02:18:18;;;;;;;;;;;4.30;99.90;;;;;;4994660;28;19914;-76
2023/03/27 02:20:43;;;;;;;;;;;4.30;99.90;;;;;;4994548;28;20286;-76
2023/03/27 02:23:10;;;;;;;;;;;4.30;99.90;;;;;;4976872;28;19960;-76
2023/03/27 02:25:40;;;;;;;;;;;4.30;99.90;;;;;;4994883;28;20401;-76
2023/03/27 02:28:09;;;;;;;;;;;4.30;99.90;;;;;;4994566;28;19980;-76
2023/03/27 02:30:57;;;;;;;;;;;4.40;99.90;;;;;;4994452;28;20383;-76
2023/03/27 02:33:26;;;;;;;;;;;4.40;99.90;;;;;;4994694;28;19933;-76
2023/03/27 02:36:04;;;;;;;;;;;4.40;99.90;;;;;;4994487;28;20369;-76
2023/03/27 02:38:35;;;;;;;;;;;4.30;99.90;;;;;;4994475;28;19938;-76
2023/03/27 02:41:00;;;;;;;;;;;4.30;99.90;;;;;;4981170;28;19921;-76
2023/03/27 02:43:38;;;;;;;;;;;4.30;99.90;;;;;;4997352;28;19914;-76
2023/03/27 02:46:08;;;;;;;;;;;4.20;99.90;;;;;;4998372;28;19910;-76
2023/03/27 02:48:42;;;;;;;;;;;4.20;99.90;;;;;;4998645;28;19909;-76
2023/03/27 02:51:16;;;;;;;;;;;4.10;99.90;;;;;;4998526;28;19910;-76
2023/03/27 02:53:45;;;;;;;;;;;4.20;99.90;;;;;;4980695;28;19917;-76
2023/03/27 02:56:12;;;;;;;;;;;4.10;99.90;;;;;;4998472;28;20251;-76
2023/03/27 02:58:41;;;;;;;;;;;4.10;99.90;;;;;;4980435;28;19913;-76
2023/03/27 03:01:12;;;;;;;;;;;4.10;99.90;;;;;;4998614;28;19938;-76
2023/03/27 03:03:41;;;;;;;;;;;4.00;99.90;;;;;;4980583;28;19914;-76
2023/03/27 03:06:09;;;;;;;;;;;4.00;99.90;;;;;;4998032;28;20040;-76
2023/03/27 03:08:39;;;;;;;;;;;4.00;99.90;;;;;;4998034;28;19914;-76
2023/03/27 03:11:09;;;;;;;;;;;4.00;99.90;;;;;;4998192;28;19910;-76
2023/03/27 03:13:34;;;;;;;;;;;4.00;99.90;;;;;;4997544;28;20290;-76
2023/03/27 03:16:00;;;;;;;;;;;3.90;99.90;;;;;;4998033;28;19918;-76
2023/03/27 03:18:26;;;;;;;;;;;4.00;99.90;;;;;;4980386;28;19909;-76
2023/03/27 03:20:53;;;;;;;;;;;3.90;99.90;;;;;;4980274;28;19914;-76
2023/03/27 03:23:20;;;;;;;;;;;3.90;99.90;;;;;;4980358;28;19917;-76
2023/03/27 03:25:46;;;;;;;;;;;3.90;99.90;;;;;;4997674;28;19910;-76
2023/03/27 03:28:12;;;;;;;;;;;3.90;99.90;;;;;;4997356;28;19916;-76
2023/03/27 03:30:41;;;;;;;;;;;3.90;99.90;;;;;;4997624;28;20293;-76
2023/03/27 03:33:08;;;;;;;;;;;3.90;99.90;;;;;;4997593;28;19914;-76
2023/03/27 03:35:34;;;;;;;;;;;3.90;99.90;;;;;;4997730;28;19933;-76
2023/03/27 03:37:59;;;;;;;;;;;3.90;99.90;;;;;;4997418;28;20362;-76
2023/03/27 03:40:25;;;;;;;;;;;3.90;99.90;;;;;;4980257;28;19914;-76
2023/03/27 03:42:51;;;;;;;;;;;3.90;99.90;;;;;;4997001;28;19914;-76
2023/03/27 03:45:17;;;;;;;;;;;3.90;99.90;;;;;;4997264;28;19914;-76
2023/03/27 03:47:44;;;;;;;;;;;3.90;99.90;;;;;;4980092;28;19957;-76
2023/03/27 03:50:10;;;;;;;;;;;3.90;99.90;;;;;;4996569;28;19910;-76
2023/03/27 03:52:36;;;;;;;;;;;3.90;99.90;;;;;;4996776;28;19913;-76
2023/03/27 03:55:03;;;;;;;;;;;3.90;99.90;;;;;;4997267;28;19910;-76
2023/03/27 03:57:29;;;;;;;;;;;3.90;99.90;;;;;;4997121;28;20386;-76
2023/03/27 03:59:56;;;;;;;;;;;3.90;99.90;;;;;;4997100;28;19917;-76
2023/03/27 04:02:28;;;;;;;;;;;3.90;99.90;;;;;;4979842;28;19925;-76
2023/03/27 04:04:57;;;;;;;;;;;3.90;99.90;;;;;;4980719;28;19914;-76
2023/03/27 04:07:23;;;;;;;;;;;3.90;99.90;;;;;;4979471;28;19910;-76
2023/03/27 04:09:50;;;;;;;;;;;3.90;99.90;;;;;;4979372;28;19914;-76
2023/03/27 04:12:16;;;;;;;;;;;3.90;99.90;;;;;;4996529;28;19997;-76
2023/03/27 04:14:41;;;;;;;;;;;3.90;99.90;;;;;;4996779;28;20275;-77
2023/03/27 04:17:07;;;;;;;;;;;3.90;99.90;;;;;;4996468;28;19917;-76
2023/03/27 04:19:32;;;;;;;;;;;3.90;99.90;;;;;;4996722;28;20347;-76
2023/03/27 04:22:01;;;;;;;;;;;3.90;99.90;;;;;;4996764;28;20353;-76
2023/03/27 04:24:29;;;;;;;;;;;3.90;99.90;;;;;;4979763;28;19945;-77
2023/03/27 04:26:57;;;;;;;;;;;3.80;99.90;;;;;;4978878;28;19920;-76
2023/03/27 04:29:23;;;;;;;;;;;3.70;99.90;;;;;;4996793;28;20012;-76
2023/03/27 04:31:49;;;;;;;;;;;3.70;99.90;;;;;;4996659;28;19913;-76
2023/03/27 04:34:19;;;;;;;;;;;3.60;99.90;;;;;;4996792;28;19909;-76
2023/03/27 04:36:45;;;;;;;;;;;3.60;99.90;;;;;;4996640;28;19936;-76
2023/03/27 04:39:10;;;;;;;;;;;3.50;99.90;;;;;;4996633;28;20005;-76
2023/03/27 04:41:37;;;;;;;;;;;3.50;99.90;;;;;;4996155;28;19917;-76
2023/03/27 04:44:04;;;;;;;;;;;3.50;99.90;;;;;;4978536;28;19910;-76
2023/03/27 04:46:29;;;;;;;;;;;3.50;99.90;;;;;;4996215;28;19913;-77
2023/03/27 04:48:55;;;;;;;;;;;3.50;99.90;;;;;;4979093;28;20402;-77
2023/03/27 04:51:21;;;;;;;;;;;3.40;99.90;;;;;;4996079;28;19969;-77
2023/03/27 04:53:46;;;;;;;;;;;3.40;99.90;;;;;;4996011;28;19916;-77
2023/03/27 04:56:12;;;;;;;;;;;3.40;99.90;;;;;;4978499;28;19914;-76
2023/03/27 04:58:40;;;;;;;;;;;3.30;99.90;;;;;;4996004;28;19945;-77
2023/03/27 05:01:06;;;;;;;;;;;3.30;99.90;;;;;;4995934;28;19914;-77
2023/03/27 05:03:33;;;;;;;;;;;3.30;99.90;;;;;;4995530;28;19967;-76
2023/03/27 05:05:58;;;;;;;;;;;3.30;99.90;;;;;;4996172;28;19914;-77
2023/03/27 05:08:25;;;;;;;;;;;3.30;99.90;;;;;;4996096;28;20263;-77
2023/03/27 05:10:50;;;;;;;;;;;3.30;99.90;;;;;;4978799;28;19918;-76
2023/03/27 05:13:16;;;;;;;;;;;3.30;99.90;;;;;;4995494;28;19921;-76
2023/03/27 05:15:42;;;;;;;;;;;3.30;99.90;;;;;;4978373;28;19917;-76
2023/03/27 05:18:07;;;;;;;;;;;3.30;99.90;;;;;;4995598;28;19910;-76
2023/03/27 05:20:34;;;;;;;;;;;3.30;99.90;;;;;;4978154;28;19945;-76
2023/03/27 05:22:59;;;;;;;;;;;3.30;99.90;;;;;;4995380;28;19913;-76
2023/03/27 05:25:25;;;;;;;;;;;3.30;99.90;;;;;;4995824;28;19914;-76
2023/03/27 05:27:51;;;;;;;;;;;3.30;99.90;;;;;;4995145;28;20333;-77
2023/03/27 05:30:19;;;;;;;;;;;3.20;99.90;;;;;;4995300;28;19918;-77
2023/03/27 05:32:47;;;;;;;;;;;3.20;99.90;;;;;;4995413;28;19909;-76
2023/03/27 05:35:14;;;;;;;;;;;3.20;99.90;;;;;;4995260;28;19917;-76
2023/03/27 05:37:45;;;;;;;;;;;3.20;99.90;;;;;;4995484;28;19914;-76
2023/03/27 05:40:14;;;;;;;;;;;3.10;99.90;;;;;;4995790;28;20281;-76
2023/03/27 05:42:43;;;;;;;;;;;3.00;99.90;;;;;;4994825;28;19921;-76
2023/03/27 05:45:09;;;;;;;;;;;3.00;99.90;;;;;;4995111;28;19910;-76
2023/03/27 05:47:58;;;;;;;;;;;2.90;99.90;;;;;;4995001;28;19995;-76
2023/03/27 05:50:28;;;;;;;;;;;2.80;99.90;;;;;;4987381;28;19910;-76
2023/03/27 05:52:54;;;;;;;;;;;2.70;99.90;;;;;;4995021;28;20027;-76
2023/03/27 05:55:20;;;;;;;;;;;2.60;99.90;;;;;;4994997;28;19914;-76
2023/03/27 05:57:45;;;;;;;;;;;2.60;99.90;;;;;;4994656;28;20371;-76
2023/03/27 06:00:15;;;;;;;;;;;2.50;99.90;;;;;;4995195;28;20362;-76
2023/03/27 06:02:43;;;;;;;;;;;2.40;99.90;;;;;;4994689;28;19922;-76
2023/03/27 06:05:12;;;;;;;;;;;2.40;99.90;;;;;;4994805;28;19964;-76
2023/03/27 06:07:37;;;;;;;;;;;2.30;99.90;;;;;;4994745;28;19917;-76
2023/03/27 06:10:04;;;;;;;;;;;2.30;99.90;;;;;;4994984;28;19922;-76
2023/03/27 06:12:32;;;;;;;;;;;2.30;99.90;;;;;;4994290;28;20139;-76
2023/03/27 06:14:58;;;;;;;;;;;2.30;99.90;;;;;;4994082;28;20401;-76
2023/03/27 06:17:23;;;;;;;;;;;2.30;99.90;;;;;;4994893;28;19945;-76
2023/03/27 06:19:49;;;;;;;;;;;2.30;99.90;;;;;;4994609;28;20321;-76
2023/03/27 06:22:15;;;;;;;;;;;2.30;99.90;;;;;;4977003;28;20260;-76
2023/03/27 06:24:41;;;;;;;;;;;2.30;99.90;;;;;;4994647;28;19926;-76
2023/03/27 06:27:07;;;;;;;;;;;2.40;99.90;;;;;;4994642;28;19968;-76
2023/03/27 06:29:33;;;;;;;;;;;2.40;99.90;;;;;;4994193;28;19926;-76
2023/03/27 06:32:00;;;;;;;;;;;2.40;99.90;;;;;;4960900;28;20005;-76
2023/03/27 06:34:26;;;;;;;;;;;2.40;99.90;;;;;;4977079;28;19914;-76
2023/03/27 06:36:52;;;;;;;;;;;2.40;99.90;;;;;;4994823;28;19921;-76
2023/03/27 06:39:18;;;;;;;;;;;2.30;99.90;;;;;;4976948;28;19917;-76
2023/03/27 06:41:43;;;;;;;;;;;2.30;99.90;;;;;;4976714;28;19918;-76
2023/03/27 06:44:09;;;;;;;;;;;2.30;99.90;;;;;;4994183;28;20374;-75
2023/03/27 06:46:35;;;;;;;;;;;2.20;99.90;;;;;;4994309;28;19957;-75
2023/03/27 06:49:00;;;;;;;;;;;2.10;99.90;;;;;;4994583;28;19918;-75
2023/03/27 06:51:26;;;;;;;;;;;2.10;99.90;;;;;;4994829;28;19914;-75
2023/03/27 06:53:52;;;;;;;;;;;2.00;99.90;;;;;;4994286;28;19910;-75
2023/03/27 06:56:18;;;;;;;;;;;2.00;99.90;;;;;;4994258;28;19952;-75
2023/03/27 06:58:44;;;;;;;;;;;1.90;99.90;;;;;;4994028;28;19909;-75
2023/03/27 07:01:09;;;;;;;;;;;1.90;99.90;;;;;;4994225;28;19921;-75
2023/03/27 07:03:35;;;;;;;;;;;1.90;99.90;;;;;;4994399;28;19921;-74
2023/03/27 07:06:00;;;;;;;;;;;1.90;99.90;;;;;;4994155;28;19980;-74
2023/03/27 07:08:26;;;;;;;;;;;1.90;99.90;;;;;;4994408;28;20043;-74
2023/03/27 07:10:53;;;;;;;;;;;1.90;99.90;;;;;;4977005;28;20391;-74
2023/03/27 07:13:18;;;;;;;;;;;1.90;99.90;;;;;;4993748;28;20267;-74
2023/03/27 07:15:44;;;;;;;;;;;1.90;99.90;;;;;;4994145;28;19921;-75
2023/03/27 07:18:10;;;;;;;;;;;1.90;99.90;;;;;;4994036;28;19914;-76
2023/03/27 07:20:35;;;;;;;;;;;1.90;99.90;;;;;;4994044;28;19918;-75
2023/03/27 07:23:02;;;;;;;;;;;1.80;99.90;;;;;;4994169;28;19914;-75
2023/03/27 07:25:31;;;;;;;;;;;1.80;99.90;;;;;;4995543;28;20001;-75
2023/03/27 07:28:00;;;;;;;;;;;1.80;99.90;;;;;;4997418;28;19933;-75
2023/03/27 07:30:26;;;;;;;;;;;1.80;99.90;;;;;;4997800;28;19925;-76
2023/03/27 07:32:52;;;;;;;;;;;1.80;99.90;;;;;;5034671;22;19925;-76
2023/03/27 07:35:18;;;;;;;;;;;1.70;99.90;;;;;;5038458;28;20361;-78
2023/03/27 07:37:44;;;;;;;;;;;1.70;99.90;;;;;;5038447;28;20398;-77
2023/03/27 07:40:12;;;;;;;;;;;1.60;99.90;;;;;;5036970;28;19909;-77
2023/03/27 07:42:43;;;;;;;;;;;1.60;99.90;;;;;;5036379;28;19924;-77
2023/03/27 07:45:10;;;;;;;;;;;1.60;99.90;;;;;;5036897;28;19909;-77
2023/03/27 07:47:35;;;;;;;;;;;1.60;99.90;;;;;;5036856;28;20257;-76
2023/03/27 07:50:02;;;;;;;;;;;1.60;99.90;;;;;;5036768;28;20055;-76
2023/03/27 07:52:28;;;;;;;;;;;1.60;99.90;;;;;;5036830;28;19917;-77
2023/03/27 07:54:55;;;;;;;;;;;1.60;99.90;;;;;;5036643;28;19913;-77
2023/03/27 07:57:21;;;;;;;;;;;1.70;99.90;;;;;;5002771;28;20322;-77
2023/03/27 07:59:46;;;;;;;;;;;1.70;99.90;;;;;;5018726;28;19917;-77
2023/03/27 08:02:12;;;;;;;;;;;1.70;99.90;;;;;;5036485;28;19917;-77
2023/03/27 08:04:38;;;;;;;;;;;1.70;99.90;;;;;;5037035;28;19913;-77
2023/03/27 08:07:04;;;;;;;;;;;1.70;99.90;;;;;;5036824;28;19955;-77
2023/03/27 08:09:29;;;;;;;;;;;1.80;99.90;;;;;;5002347;28;19913;-77
2023/03/27 08:11:55;;;;;;;;;;;1.80;99.90;;;;;;5018612;28;20008;-77
2023/03/27 08:14:20;;;;;;;;;;;1.80;99.90;;;;;;5018698;28;19913;-78
2023/03/27 08:16:46;;;;;;;;;;;1.70;99.90;;;;;;5036759;28;20296;-78
2023/03/27 08:19:12;;;;;;;;;;;1.70;99.90;;;;;;5036476;28;20300;-78
2023/03/27 08:21:38;;;;;;;;;;;1.80;99.90;;;;;;5002753;28;19971;-77
2023/03/27 08:24:04;;;;;;;;;;;1.70;99.90;;;;;;5018979;28;19953;-78
2023/03/27 08:26:31;;;;;;;;;;;1.70;99.90;;;;;;5018978;28;19914;-77
2023/03/27 08:28:57;;;;;;;;;;;1.70;99.90;;;;;;5019396;28;20403;-78
2023/03/27 08:31:24;;;;;;;;;;;1.70;99.90;;;;;;5019672;28;19914;-78
2023/03/27 08:33:50;;;;;;;;;;;1.70;99.90;;;;;;5037016;28;20320;-78
2023/03/27 08:36:18;;;;;;;;;;;1.70;99.90;;;;;;5036937;28;19910;-77
2023/03/27 08:38:44;;;;;;;;;;;1.70;99.90;;;;;;5003569;28;19913;-78
2023/03/27 08:41:23;;;;;;;;;;;1.60;99.90;;;;;;5019601;28;19909;-78
2023/03/27 08:43:49;;;;;;;;;;;1.60;99.90;;;;;;5037214;28;19913;-77
2023/03/27 08:46:25;;;;;;;;;;;1.60;99.90;;;;;;5037420;28;19921;-78
2023/03/27 08:49:03;;;;;;;;;;;1.70;99.90;;;;;;5037336;28;19909;-78
2023/03/27 08:51:40;;;;;;;;;;;1.70;99.90;;;;;;5037104;28;19916;-79
2023/03/27 08:54:16;;;;;;;;;;;1.80;99.90;;;;;;5019077;28;20348;-78
2023/03/27 08:56:43;;;;;;;;;;;1.80;99.90;;;;;;5037499;28;19909;-78
2023/03/27 08:59:11;;;;;;;;;;;1.80;99.90;;;;;;5036972;28;19909;-78
2023/03/27 09:01:52;;;;;;;;;;;1.80;99.90;;;;;;5036904;28;19919;-78
2023/03/27 09:04:28;;;;;;;;;;;1.80;99.90;;;;;;5037861;28;19909;-78
2023/03/27 09:07:08;;;;;;;;;;;1.80;99.90;;;;;;5037228;28;19909;-78
2023/03/27 09:09:41;;;;;;;;;;;1.80;99.90;;;;;;5037225;28;19909;-78
2023/03/27 09:12:27;;;;;;;;;;;1.80;99.90;;;;;;5018884;28;19913;-78
2023/03/27 09:14:55;;;;;;;;;;;1.70;99.90;;;;;;5018946;28;20328;-78
2023/03/27 09:17:25;;;;;;;;;;;1.80;99.90;;;;;;5018746;28;19917;-78
2023/03/27 09:19:50;;;;;;;;;;;1.80;99.90;;;;;;5037192;28;19968;-78
2023/03/27 09:22:24;;;;;;;;;;;1.90;99.90;;;;;;5036567;28;19924;-78
2023/03/27 09:24:51;;;;;;;;;;;1.90;99.90;;;;;;5018790;28;19909;-78
2023/03/27 09:27:19;;;;;;;;;;;2.00;99.90;;;;;;5037141;28;19914;-78
2023/03/27 09:29:50;;;;;;;;;;;2.00;99.90;;;;;;5018812;28;19909;-78
2023/03/27 09:32:15;;;;;;;;;;;2.00;99.90;;;;;;5018719;28;19913;-78
2023/03/27 09:34:41;;;;;;;;;;;2.10;99.90;;;;;;5036857;28;20099;-78
2023/03/27 09:37:12;;;;;;;;;;;2.20;99.90;;;;;;5018569;28;20295;-78
2023/03/27 09:39:39;;;;;;;;;;;2.20;99.90;;;;;;5036479;28;19909;-78
2023/03/27 09:42:10;;;;;;;;;;;2.30;99.90;;;;;;5036741;28;20008;-78
2023/03/27 09:44:38;;;;;;;;;;;2.20;99.90;;;;;;5018342;28;19909;-78
2023/03/27 09:47:14;;;;;;;;;;;2.30;99.90;;;;;;5036557;28;19909;-78
2023/03/27 09:49:43;;;;;;;;;;;2.30;99.90;;;;;;5035671;28;19909;-78
2023/03/27 09:52:29;;;;;;;;;;;2.40;99.90;;;;;;5036485;28;20269;-78
2023/03/27 09:54:55;;;;;;;;;;;2.40;99.90;;;;;;5036167;28;19916;-78
2023/03/27 09:57:20;;;;;;;;;;;2.50;99.90;;;;;;5018475;28;19999;-78
2023/03/27 10:00:00;;;;;;;;;;;2.50;99.90;;;;;;5036122;28;20385;-78
2023/03/27 10:02:27;;;;;;;;;;;2.60;99.90;;;;;;5036380;28;19917;-78
2023/03/27 10:05:01;;;;;;;;;;;2.70;99.90;;;;;;5036966;28;19956;-78
2023/03/27 10:07:27;;;;;;;;;;;2.70;99.90;;;;;;5036094;28;20391;-78
2023/03/27 10:10:25;;;;;;;;;;;2.70;99.90;;;;;;5036059;28;19913;-78
2023/03/27 10:12:55;;;;;;;;;;;2.70;99.90;;;;;;4992568;28;19909;-78
2023/03/27 10:15:35;;;;;;;;;;;2.70;99.90;;;;;;5035716;28;19913;-78
2023/03/27 10:18:03;;;;;;;;;;;2.70;99.90;;;;;;5035851;28;20003;-78
2023/03/27 10:20:29;;;;;;;;;;;2.70;99.90;;;;;;5036179;28;19916;-78
2023/03/27 10:22:58;;;;;;;;;;;2.70;99.90;;;;;;5017926;28;19962;-78
2023/03/27 10:25:29;;;;;;;;;;;2.60;99.90;;;;;;5017987;28;20004;-78
2023/03/27 10:28:06;;;;;;;;;;;2.60;99.90;;;;;;5050661;28;19916;-79
2023/03/27 10:30:32;;;;;;;;;;;2.60;99.90;;;;;;5035234;28;19917;-78
2023/03/27 10:32:58;;;;;;;;;;;2.50;99.90;;;;;;5035241;28;19921;-78
2023/03/27 10:35:26;;;;;;;;;;;2.50;99.90;;;;;;5017771;28;19917;-78
2023/03/27 10:37:53;;;;;;;;;;;2.50;99.90;;;;;;5050306;28;20016;-78
2023/03/27 10:40:38;;;;;;;;;;;2.50;99.90;;;;;;5050463;28;19916;-78
2023/03/27 10:43:08;;;;;;;;;;;2.50;99.90;;;;;;5015955;28;19913;-77
2023/03/27 10:45:39;;;;;;;;;;;2.50;99.90;;;;;;5034562;28;19909;-78
2023/03/27 10:48:05;;;;;;;;;;;2.50;99.90;;;;;;5034065;28;19913;-78
2023/03/27 10:50:40;;;;;;;;;;;2.40;99.90;;;;;;5034469;28;19909;-78
2023/03/27 10:53:25;;;;;;;;;;;2.50;99.90;;;;;;5034585;28;19917;-78
2023/03/27 10:56:04;;;;;;;;;;;2.60;99.90;;;;;;5036123;28;19909;-78
2023/03/27 10:58:33;;;;;;;;;;;2.70;99.90;;;;;;5017841;28;19909;-78
2023/03/27 11:01:14;;;;;;;;;;;2.70;99.90;;;;;;5038317;28;20393;-79
2023/03/27 11:03:50;;;;;;;;;;;2.70;99.90;;;;;;5039475;28;19913;-78
2023/03/27 11:06:16;;;;;;;;;;;2.70;99.90;;;;;;5039407;28;19931;-78
2023/03/27 11:08:45;;;;;;;;;;;2.70;99.90;;;;;;5039336;28;20011;-78
2023/03/27 11:11:14;;;;;;;;;;;2.70;99.90;;;;;;5039142;28;19992;-77
2023/03/27 11:13:42;;;;;;;;;;;2.70;99.90;;;;;;5038423;28;19909;-78
2023/03/27 11:16:11;;;;;;;;;;;2.50;99.90;;;;;;5020803;28;19909;-78
2023/03/27 11:18:46;;;;;;;;;;;2.40;99.90;;;;;;5021060;28;19920;-77
2023/03/27 11:21:38;;;;;;;;;;;2.40;99.90;;;;;;5038524;28;19952;-77
2023/03/27 11:24:05;;;;;;;;;;;2.40;99.90;;;;;;5034042;28;20016;-77
2023/03/27 11:26:35;;;;;;;;;;;2.30;99.90;;;;;;5019799;28;20336;-77
2023/03/27 11:29:08;;;;;;;;;;;2.30;99.90;;;;;;5037249;28;19916;-79
2023/03/27 11:31:39;;;;;;;;;;;2.30;99.90;;;;;;5019161;28;20398;-77
2023/03/27 11:34:19;;;;;;;;;;;2.30;99.90;;;;;;5037081;28;19918;-77
2023/03/27 11:36:54;;;;;;;;;;;2.40;99.90;;;;;;5037375;28;19940;-77
2023/03/27 11:39:30;;;;;;;;;;;2.40;99.90;;;;;;5038267;28;19909;-77
2023/03/27 11:41:57;;;;;;;;;;;2.60;99.90;;;;;;5036878;28;19929;-77
2023/03/27 11:44:24;;;;;;;;;;;2.60;99.90;;;;;;5036680;28;19909;-77
2023/03/27 11:46:52;;;;;;;;;;;2.70;99.90;;;;;;5019235;28;19916;-77
2023/03/27 11:49:27;;;;;;;;;;;2.70;99.90;;;;;;5036970;28;19909;-77
2023/03/27 11:51:53;;;;;;;;;;;2.70;99.90;;;;;;5038852;28;19909;-79
2023/03/27 11:54:19;;;;;;;;;;;2.60;99.90;;;;;;5019939;28;19916;-79
2023/03/27 11:56:54;;;;;;;;;;;2.60;99.90;;;;;;5020207;28;20366;-77
2023/03/27 11:59:29;;;;;;;;;;;2.50;99.90;;;;;;5037243;28;19932;-78
2023/03/27 12:02:03;;;;;;;;;;;2.40;99.90;;;;;;5038095;28;19913;-78
2023/03/27 12:05:04;;;;;;;;;;;2.50;99.90;;;;;;5037842;28;19916;-79
2023/03/27 12:07:49;;;;;;;;;;;2.40;99.90;;;;;;4955512;29;19922;-77
2023/03/27 12:10:25;;;;;;;;;;;2.30;99.90;;;;;;5012242;28;19909;-77
2023/03/27 12:12:51;;;;;;;;;;;2.30;99.90;;;;;;5017475;28;19979;-77
2023/03/27 12:15:32;;;;;;;;;;;2.30;99.90;;;;;;5035193;28;20369;-77
2023/03/27 12:18:13;;;;;;;;;;;2.30;99.90;;;;;;5036185;28;19916;-77
2023/03/27 12:20:39;;;;;;;;;;;2.30;99.90;;;;;;5018380;28;19910;-78
2023/03/27 12:23:15;;;;;;;;;;;2.30;99.90;;;;;;5035445;28;19920;-77
2023/03/27 12:26:01;;;;;;;;;;;2.30;99.90;;;;;;5017984;28;19918;-77
2023/03/27 12:28:33;;;;;;;;;;;2.40;99.90;;;;;;4989398;28;19952;-76
2023/03/27 12:31:03;;;;;;;;;;;2.40;99.90;;;;;;5018152;28;19940;-77
2023/03/27 12:33:31;;;;;;;;;;;2.40;99.90;;;;;;5017725;28;20270;-77
2023/03/27 12:35:58;;;;;;;;;;;2.40;99.90;;;;;;5035857;28;19936;-77
2023/03/27 12:38:32;;;;;;;;;;;2.50;99.90;;;;;;5035831;28;19955;-77
2023/03/27 12:41:04;;;;;;;;;;;2.50;99.90;;;;;;5034725;28;20387;-77
2023/03/27 12:43:32;;;;;;;;;;;2.50;99.90;;;;;;5035043;28;19991;-77
2023/03/27 12:46:15;;;;;;;;;;;2.60;99.90;;;;;;5035499;28;20373;-77
2023/03/27 12:48:52;;;;;;;;;;;2.50;99.90;;;;;;5035432;28;19909;-77
2023/03/27 12:51:19;;;;;;;;;;;2.50;99.90;;;;;;5035394;28;19909;-77
2023/03/27 12:53:49;;;;;;;;;;;2.60;99.90;;;;;;5035341;28;20288;-77
2023/03/27 12:56:15;;;;;;;;;;;2.60;99.90;;;;;;5035352;28;19933;-77
2023/03/27 12:58:42;;;;;;;;;;;2.60;99.90;;;;;;5035023;28;20373;-77
2023/03/27 13:01:09;;;;;;;;;;;2.60;99.90;;;;;;5034795;28;19910;-78
2023/03/27 13:03:54;;;;;;;;;;;2.70;99.90;;;;;;5035236;28;19913;-77
2023/03/27 13:06:25;;;;;;;;;;;2.70;99.90;;;;;;5035044;28;19910;-77
2023/03/27 13:09:02;;;;;;;;;;;2.80;99.90;;;;;;5035197;28;20406;-77
2023/03/27 13:11:28;;;;;;;;;;;2.80;99.90;;;;;;5035139;28;19963;-77
2023/03/27 13:14:00;;;;;;;;;;;2.70;99.90;;;;;;5016984;28;20327;-77
2023/03/27 13:16:35;;;;;;;;;;;2.60;99.90;;;;;;5017232;28;19909;-77
2023/03/27 13:19:11;;;;;;;;;;;2.50;99.90;;;;;;5034893;28;19995;-77
2023/03/27 13:21:55;;;;;;;;;;;2.40;99.90;;;;;;5034767;28;19921;-76
2023/03/27 13:24:35;;;;;;;;;;;2.40;99.90;;;;;;5034357;28;19915;-77
2023/03/27 13:27:20;;;;;;;;;;;2.50;99.90;;;;;;5017114;28;19909;-77
2023/03/27 13:29:50;;;;;;;;;;;2.40;99.90;;;;;;5034701;28;20423;-77
2023/03/27 13:32:31;;;;;;;;;;;2.30;99.90;;;;;;5017207;28;20276;-77
2023/03/27 13:35:03;;;;;;;;;;;2.30;99.90;;;;;;5024709;23;19933;-83
2023/03/27 13:37:29;;;;;;;;;;;2.30;99.90;;;;;;5016728;28;19913;-86
2023/03/27 13:39:55;;;;;;;;;;;2.30;99.90;;;;;;5034265;28;19916;-86
2023/03/27 13:42:26;;;;;;;;;;;2.30;99.90;;;;;;5016401;28;19917;-86
2023/03/27 13:45:06;;;;;;;;;;;2.30;99.90;;;;;;5016580;28;19909;-87
2023/03/27 13:47:32;;;;;;;;;;;2.30;99.90;;;;;;5034403;28;19909;-86
2023/03/27 13:50:00;;;;;;;;;;;2.30;99.90;;;;;;5016395;28;20361;-86
2023/03/27 13:52:45;;;;;;;;;;;2.30;99.90;;;;;;5034065;28;20384;-87
2023/03/27 13:55:16;;;;;;;;;;;2.30;99.90;;;;;;5016489;28;19966;-87
2023/03/27 13:58:01;;;;;;;;;;;2.40;99.90;;;;;;5016217;28;19916;-86
2023/03/27 14:00:46;;;;;;;;;;;2.50;99.90;;;;;;5030112;28;19920;-86
2023/03/27 14:03:11;;;;;;;;;;;2.50;99.90;;;;;;5000827;28;19960;-86
2023/03/27 14:05:37;;;;;;;;;;;2.50;99.90;;;;;;5008912;28;19952;-83
2023/03/27 14:08:18;;;;;;;;;;;2.50;99.90;;;;;;4996842;28;19910;-87
2023/03/27 14:10:47;;;;;;;;;;;2.50;99.90;;;;;;4996810;28;19910;-87
2023/03/27 14:13:25;;;;;;;;;;;2.50;99.90;;;;;;4996392;28;20416;-87
2023/03/27 14:15:54;;;;;;;;;;;2.50;99.90;;;;;;4998016;28;19909;-87
2023/03/27 14:18:22;;;;;;;;;;;2.50;99.90;;;;;;4996818;28;19963;-85
2023/03/27 14:20:50;;;;;;;;;;;2.50;99.90;;;;;;4996792;28;19920;-87
2023/03/27 14:23:22;;;;;;;;;;;2.50;99.90;;;;;;4995744;28;20266;-85
2023/03/27 14:25:52;;;;;;;;;;;2.50;99.90;;;;;;4996073;28;20313;-86
2023/03/27 14:28:31;;;;;;;;;;;2.40;99.90;;;;;;4996387;28;19996;-88
2023/03/27 14:31:01;;;;;;;;;;;2.20;99.90;;;;;;5014723;28;20314;-87
2023/03/27 14:33:27;;;;;;;;;;;2.10;99.90;;;;;;4996565;28;19917;-88
2023/03/27 14:36:04;;;;;;;;;;;2.00;99.90;;;;;;4996301;28;19927;-87
2023/03/27 14:38:30;;;;;;;;;;;1.90;99.90;;;;;;4996666;28;19913;-87
2023/03/27 14:40:57;;;;;;;;;;;1.70;99.90;;;;;;4996692;28;19920;-87
2023/03/27 14:43:25;;;;;;;;;;;1.60;99.90;;;;;;5014117;28;19913;-87
2023/03/27 14:45:52;;;;;;;;;;;1.50;99.90;;;;;;5014289;28;19910;-87